Time;durP1;ratioP1;P1;durP2;ratioP2;P2;SDS_P1;SDS_P2;PMS_P1;PMS_P2;Temp;Humidity;BMP_temperature;BMP_pressure;BME280_temperature;BME280_humidity;BME280_pressure;Samples;Min_cycle;Max_cycle;Signal;HPM_P1;HPM_P2
2022/04/20 00:00:37;;;;;;;;;;;8.40;88.50;;;;;;4963862;28;19932;-71
2022/04/20 00:03:04;;;;;;;;;;;8.40;89.50;;;;;;4971836;28;19926;-71
2022/04/20 00:05:33;;;;;;;;;;;8.40;90.50;;;;;;4970127;28;19926;-71
2022/04/20 00:08:00;;;;;;;;;;;8.30;90.40;;;;;;4971154;28;19944;-71
2022/04/20 00:10:26;;;;;;;;;;;8.40;90.50;;;;;;4965319;28;19929;-72
2022/04/20 00:12:53;;;;;;;;;;;8.30;90.30;;;;;;4971287;28;19926;-73
2022/04/20 00:15:21;;;;;;;;;;;8.40;90.40;;;;;;4970085;28;19922;-72
2022/04/20 00:17:48;;;;;;;;;;;8.40;90.00;;;;;;4963838;28;19930;-72
2022/04/20 00:20:15;;;;;;;;;;;8.30;87.90;;;;;;4966128;28;19986;-72
2022/04/20 00:22:42;;;;;;;;;;;8.30;86.30;;;;;;4950683;28;19936;-72
2022/04/20 00:25:09;;;;;;;;;;;8.20;83.00;;;;;;4961813;28;19926;-72
2022/04/20 00:27:36;;;;;;;;;;;8.20;83.10;;;;;;4966032;28;19926;-70
2022/04/20 00:30:03;;;;;;;;;;;8.10;81.20;;;;;;4970199;28;19984;-71
2022/04/20 00:32:31;;;;;;;;;;;8.10;80.90;;;;;;4969415;28;20021;-71
2022/04/20 00:34:58;;;;;;;;;;;8.00;82.70;;;;;;4970182;28;19988;-71
2022/04/20 00:37:25;;;;;;;;;;;8.00;78.20;;;;;;4953875;28;19926;-71
2022/04/20 00:39:53;;;;;;;;;;;7.60;76.00;;;;;;4955333;28;19925;-71
2022/04/20 00:42:20;;;;;;;;;;;7.90;76.40;;;;;;4954703;28;19922;-71
2022/04/20 00:44:47;;;;;;;;;;;7.80;76.30;;;;;;4962809;28;19947;-72
2022/04/20 00:47:14;;;;;;;;;;;7.80;76.80;;;;;;4971434;28;19929;-71
2022/04/20 00:49:43;;;;;;;;;;;7.80;77.00;;;;;;4953329;28;20387;-71
2022/04/20 00:52:10;;;;;;;;;;;7.80;77.00;;;;;;4967397;28;19949;-72
2022/04/20 00:54:38;;;;;;;;;;;7.80;77.10;;;;;;4953544;28;20371;-71
2022/04/20 00:57:05;;;;;;;;;;;7.70;76.90;;;;;;4972050;28;19945;-72
2022/04/20 00:59:35;;;;;;;;;;;7.70;77.20;;;;;;4952089;28;20002;-71
2022/04/20 01:02:03;;;;;;;;;;;7.70;77.50;;;;;;4957426;28;19922;-71
2022/04/20 01:04:31;;;;;;;;;;;7.70;77.50;;;;;;4959587;28;20415;-71
2022/04/20 01:07:22;;;;;;;;;;;7.60;77.50;;;;;;4933960;28;19933;-71
2022/04/20 01:09:51;;;;;;;;;;;7.60;78.60;;;;;;4964301;28;19988;-71
2022/04/20 01:12:38;;;;;;;;;;;7.60;77.80;;;;;;4967058;28;20327;-71
2022/04/20 01:15:37;;;;;;;;;;;7.60;77.90;;;;;;4958246;28;19933;-72
2022/04/20 01:18:33;;;;;;;;;;;7.60;77.80;;;;;;4926424;28;19934;-71
2022/04/20 01:21:25;;;;;;;;;;;7.60;78.00;;;;;;4986806;28;20009;-71
2022/04/20 01:24:30;;;;;;;;;;;7.50;78.10;;;;;;4953492;28;20028;-72
2022/04/20 01:27:16;;;;;;;;;;;7.50;78.30;;;;;;4961690;28;20411;-72
2022/04/20 01:29:58;;;;;;;;;;;7.50;78.50;;;;;;4965090;28;20005;-71
2022/04/20 01:32:35;;;;;;;;;;;7.50;78.80;;;;;;4962372;28;19937;-72
2022/04/20 01:35:17;;;;;;;;;;;7.40;78.80;;;;;;4951823;28;20319;-72
2022/04/20 01:37:46;;;;;;;;;;;7.40;79.00;;;;;;4961614;28;20030;-72
2022/04/20 01:40:13;;;;;;;;;;;7.30;79.20;;;;;;4950438;28;19922;-72
2022/04/20 01:42:40;;;;;;;;;;;7.30;79.20;;;;;;4947734;28;19937;-72
2022/04/20 01:45:09;;;;;;;;;;;7.30;79.70;;;;;;4950589;28;19933;-71
2022/04/20 01:47:42;;;;;;;;;;;7.20;79.60;;;;;;4950432;28;19926;-71
2022/04/20 01:50:28;;;;;;;;;;;7.20;79.70;;;;;;4966582;28;19988;-71
2022/04/20 01:53:03;;;;;;;;;;;7.10;79.60;;;;;;4967562;28;19922;-71
2022/04/20 01:56:06;;;;;;;;;;;7.10;79.70;;;;;;4955219;28;20032;-71
2022/04/20 01:59:11;;;;;;;;;;;7.10;79.80;;;;;;4962320;28;19925;-71
2022/04/20 02:04:43;;;;;;;;;;;7.00;79.90;;;;;;4948193;28;19918;-71
2022/04/20 02:07:10;;;;;;;;;;;7.00;80.10;;;;;;4952830;28;19969;-71
2022/04/20 02:09:43;;;;;;;;;;;7.00;80.40;;;;;;4964048;28;19930;-71
2022/04/20 02:12:14;;;;;;;;;;;7.00;80.60;;;;;;4965064;28;19922;-71
2022/04/20 02:15:06;;;;;;;;;;;7.00;80.60;;;;;;4953451;28;20424;-72
2022/04/20 02:17:59;;;;;;;;;;;7.00;80.70;;;;;;4947378;28;19927;-71
2022/04/20 02:20:39;;;;;;;;;;;7.00;80.60;;;;;;4947407;28;19926;-72
2022/04/20 02:23:06;;;;;;;;;;;7.00;80.60;;;;;;4952516;28;19961;-71
2022/04/20 02:25:34;;;;;;;;;;;6.90;80.60;;;;;;4960832;28;19922;-71
2022/04/20 02:28:01;;;;;;;;;;;6.90;80.70;;;;;;4949364;28;20299;-72
2022/04/20 02:30:28;;;;;;;;;;;6.90;81.00;;;;;;4948637;28;19926;-71
2022/04/20 02:32:56;;;;;;;;;;;6.90;81.10;;;;;;4952594;28;20000;-71
2022/04/20 02:35:23;;;;;;;;;;;;;;;;;;4942242;28;20249;-72
2022/04/20 02:37:49;;;;;;;;;;;6.90;80.70;;;;;;4947739;28;19937;-72
2022/04/20 02:40:17;;;;;;;;;;;6.90;81.50;;;;;;4951009;28;19977;-71
2022/04/20 02:42:47;;;;;;;;;;;6.80;81.70;;;;;;4950381;28;19933;-72
2022/04/20 02:45:14;;;;;;;;;;;6.80;81.90;;;;;;4962739;28;19925;-71
2022/04/20 02:47:40;;;;;;;;;;;6.80;81.90;;;;;;4965831;28;20372;-70
2022/04/20 02:50:08;;;;;;;;;;;6.80;82.20;;;;;;4958715;28;19933;-70
2022/04/20 02:52:35;;;;;;;;;;;6.70;82.10;;;;;;4960012;28;19926;-70
2022/04/20 02:55:02;;;;;;;;;;;6.70;82.20;;;;;;4956371;28;19930;-70
2022/04/20 02:57:29;;;;;;;;;;;6.70;82.30;;;;;;4948389;28;20008;-70
2022/04/20 02:59:57;;;;;;;;;;;6.70;82.20;;;;;;4963430;28;19926;-70
2022/04/20 03:02:24;;;;;;;;;;;6.70;82.30;;;;;;4964797;28;19922;-70
2022/04/20 03:04:52;;;;;;;;;;;6.70;82.60;;;;;;4962814;28;19926;-70
2022/04/20 03:07:22;;;;;;;;;;;6.70;82.60;;;;;;4955449;28;20384;-70
2022/04/20 03:09:52;;;;;;;;;;;6.70;82.70;;;;;;4966908;28;20017;-70
2022/04/20 03:12:21;;;;;;;;;;;6.70;82.80;;;;;;4957927;28;19985;-70
2022/04/20 03:14:54;;;;;;;;;;;6.70;82.70;;;;;;4956349;28;20017;-69
2022/04/20 03:17:23;;;;;;;;;;;6.70;82.80;;;;;;4967538;28;19926;-70
2022/04/20 03:19:50;;;;;;;;;;;6.70;82.90;;;;;;4971122;28;19985;-70
2022/04/20 03:22:17;;;;;;;;;;;6.70;82.80;;;;;;4962607;28;20067;-70
2022/04/20 03:24:44;;;;;;;;;;;6.70;83.00;;;;;;4966978;28;20024;-70
2022/04/20 03:27:33;;;;;;;;;;;6.70;82.90;;;;;;4964525;28;19937;-71
2022/04/20 03:30:02;;;;;;;;;;;6.60;82.80;;;;;;4959151;28;20009;-70
2022/04/20 03:32:30;;;;;;;;;;;6.70;83.00;;;;;;4968970;28;19973;-71
2022/04/20 03:34:57;;;;;;;;;;;6.60;83.00;;;;;;4969444;28;20260;-71
2022/04/20 03:37:24;;;;;;;;;;;6.60;82.90;;;;;;4967609;28;19933;-70
2022/04/20 03:39:50;;;;;;;;;;;6.60;82.90;;;;;;4975116;28;19925;-70
2022/04/20 03:42:18;;;;;;;;;;;6.50;83.00;;;;;;4974889;28;19965;-70
2022/04/20 03:44:44;;;;;;;;;;;6.50;83.10;;;;;;4955852;28;19972;-69
2022/04/20 03:47:11;;;;;;;;;;;6.50;83.20;;;;;;4967657;28;19934;-70
2022/04/20 03:49:39;;;;;;;;;;;6.50;83.30;;;;;;4947114;28;20386;-70
2022/04/20 03:52:07;;;;;;;;;;;6.50;83.40;;;;;;4961999;28;20025;-70
2022/04/20 03:54:35;;;;;;;;;;;6.50;83.40;;;;;;4963885;28;19973;-71
2022/04/20 03:57:05;;;;;;;;;;;6.40;83.40;;;;;;4954523;28;20005;-71
2022/04/20 03:59:43;;;;;;;;;;;6.40;83.50;;;;;;4956309;28;20020;-71
2022/04/20 04:02:12;;;;;;;;;;;6.40;83.60;;;;;;4954148;28;19926;-72
2022/04/20 04:04:47;;;;;;;;;;;6.40;83.60;;;;;;4969343;28;20412;-71
2022/04/20 04:07:41;;;;;;;;;;;6.40;83.80;;;;;;4953219;28;20459;-72
2022/04/20 04:10:10;;;;;;;;;;;6.30;84.00;;;;;;4956717;28;20363;-72
2022/04/20 04:12:37;;;;;;;;;;;6.30;84.10;;;;;;4957681;28;20528;-71
2022/04/20 04:15:05;;;;;;;;;;;6.30;84.30;;;;;;4975991;28;19951;-72
2022/04/20 04:17:33;;;;;;;;;;;6.30;84.40;;;;;;4958374;28;20337;-72
2022/04/20 04:20:04;;;;;;;;;;;6.30;84.80;;;;;;4960572;28;20008;-72
2022/04/20 04:22:31;;;;;;;;;;;6.30;84.90;;;;;;4964223;28;19953;-72
2022/04/20 04:25:27;;;;;;;;;;;6.30;85.00;;;;;;4967537;28;19997;-72
2022/04/20 04:27:54;;;;;;;;;;;6.20;84.70;;;;;;4944553;29;19961;-72
2022/04/20 04:30:22;;;;;;;;;;;6.20;84.90;;;;;;4943262;29;19926;-71
2022/04/20 04:33:02;;;;;;;;;;;6.20;85.10;;;;;;4968836;28;20374;-71
2022/04/20 04:35:34;;;;;;;;;;;6.20;85.10;;;;;;4950547;28;19926;-71
2022/04/20 04:38:01;;;;;;;;;;;6.20;85.40;;;;;;4960958;28;19922;-71
2022/04/20 04:40:31;;;;;;;;;;;6.20;85.70;;;;;;4966608;28;19922;-72
2022/04/20 04:42:58;;;;;;;;;;;6.30;85.90;;;;;;4954511;28;20255;-71
2022/04/20 04:48:39;;;;;;;;;;;6.30;86.10;;;;;;4965822;28;20383;-71
2022/04/20 04:51:11;;;;;;;;;;;6.30;86.00;;;;;;4952736;28;20355;-71
2022/04/20 04:53:39;;;;;;;;;;;6.40;86.30;;;;;;4952463;28;19932;-71
2022/04/20 04:56:08;;;;;;;;;;;6.50;86.50;;;;;;4949725;28;19986;-72
2022/04/20 04:58:41;;;;;;;;;;;6.60;86.90;;;;;;4949485;28;19926;-71
2022/04/20 05:01:08;;;;;;;;;;;6.60;86.90;;;;;;4960107;28;20266;-72
2022/04/20 05:03:36;;;;;;;;;;;6.60;86.90;;;;;;4963813;28;20020;-71
2022/04/20 05:06:03;;;;;;;;;;;6.70;87.10;;;;;;4969231;28;20004;-72
2022/04/20 05:08:51;;;;;;;;;;;6.80;87.30;;;;;;4964225;28;19949;-71
2022/04/20 05:11:18;;;;;;;;;;;6.80;87.40;;;;;;4956902;28;19980;-72
2022/04/20 05:13:45;;;;;;;;;;;6.90;87.70;;;;;;4959067;28;19925;-72
2022/04/20 05:16:12;;;;;;;;;;;7.00;87.80;;;;;;4952384;28;19926;-71
2022/04/20 05:18:40;;;;;;;;;;;7.10;88.20;;;;;;4954416;28;19945;-71
2022/04/20 05:21:07;;;;;;;;;;;7.90;89.10;;;;;;4958059;28;19969;-71
2022/04/20 05:23:34;;;;;;;;;;;7.30;88.40;;;;;;4941963;28;19926;-71
2022/04/20 05:26:02;;;;;;;;;;;7.40;88.50;;;;;;4961484;28;19926;-71
2022/04/20 05:28:30;;;;;;;;;;;7.50;88.60;;;;;;4952257;28;19926;-70
2022/04/20 05:30:57;;;;;;;;;;;7.70;88.60;;;;;;4967326;28;19926;-71
2022/04/20 05:33:23;;;;;;;;;;;7.90;88.60;;;;;;4963259;28;19933;-71
2022/04/20 05:35:50;;;;;;;;;;;8.10;89.00;;;;;;4963803;28;19922;-71
2022/04/20 05:43:50;;;;;;;;;;;10.50;88.50;;;;;;4967500;28;19968;-71
2022/04/20 05:46:21;;;;;;;;;;;12.90;88.50;;;;;;4962779;28;20407;-72
2022/04/20 05:49:08;;;;;;;;;;;13.20;87.40;;;;;;4969193;28;19926;-72
2022/04/20 05:51:35;;;;;;;;;;;14.40;85.10;;;;;;4964056;28;19948;-72
2022/04/20 05:54:02;;;;;;;;;;;15.10;82.30;;;;;;4960002;28;20308;-72
2022/04/20 05:56:34;;;;;;;;;;;15.80;80.90;;;;;;4950565;28;19997;-72
2022/04/20 05:59:01;;;;;;;;;;;16.50;79.90;;;;;;4959512;28;20036;-72
2022/04/20 06:01:30;;;;;;;;;;;17.00;77.30;;;;;;4950236;28;20010;-73
2022/04/20 06:04:06;;;;;;;;;;;17.70;75.50;;;;;;4950725;28;19926;-73
2022/04/20 06:06:38;;;;;;;;;;;17.90;75.00;;;;;;4968859;28;19966;-72
2022/04/20 06:09:13;;;;;;;;;;;18.60;72.40;;;;;;4948126;28;19989;-73
2022/04/20 06:12:01;;;;;;;;;;;19.00;72.30;;;;;;4959800;28;20408;-73
2022/04/20 06:14:48;;;;;;;;;;;19.40;72.40;;;;;;4967238;28;19945;-73
2022/04/20 06:17:29;;;;;;;;;;;20.00;70.20;;;;;;4960210;28;20431;-72
2022/04/20 06:19:58;;;;;;;;;;;20.40;69.80;;;;;;4967769;28;19926;-72
2022/04/20 06:22:44;;;;;;;;;;;21.00;74.80;;;;;;4960297;28;20025;-74
2022/04/20 06:25:30;;;;;;;;;;;21.50;87.20;;;;;;4955308;28;19929;-73
2022/04/20 06:28:16;;;;;;;;;;;21.90;85.70;;;;;;4958750;28;20480;-73
2022/04/20 06:31:00;;;;;;;;;;;21.90;83.80;;;;;;4966880;28;19933;-73
2022/04/20 06:33:36;;;;;;;;;;;22.00;83.90;;;;;;4964049;28;19922;-73
2022/04/20 06:36:26;;;;;;;;;;;22.20;82.80;;;;;;4962324;28;19989;-72
2022/04/20 06:39:25;;;;;;;;;;;22.20;83.00;;;;;;4962487;28;20024;-72
2022/04/20 06:42:12;;;;;;;;;;;22.50;80.90;;;;;;4965002;28;19953;-72
2022/04/20 06:45:00;;;;;;;;;;;23.00;81.50;;;;;;4963000;28;19937;-73
2022/04/20 06:47:47;;;;;;;;;;;23.30;81.20;;;;;;4964921;28;19965;-73
2022/04/20 06:50:28;;;;;;;;;;;23.40;81.40;;;;;;4951811;28;20276;-72
2022/04/20 06:58:39;;;;;;;;;;;25.30;81.20;;;;;;4947805;28;19925;-73
2022/04/20 07:01:15;;;;;;;;;;;25.80;80.30;;;;;;4945813;29;19926;-73
2022/04/20 07:04:01;;;;;;;;;;;26.10;80.00;;;;;;4975240;28;20048;-72
2022/04/20 07:06:35;;;;;;;;;;;26.40;77.30;;;;;;4963311;28;19940;-73
2022/04/20 07:09:20;;;;;;;;;;;26.60;77.70;;;;;;4981409;28;19989;-72
2022/04/20 07:12:12;;;;;;;;;;;26.90;78.70;;;;;;4963651;28;19925;-75
2022/04/20 07:14:39;;;;;;;;;;;27.10;75.40;;;;;;4951912;28;19926;-73
2022/04/20 07:17:08;;;;;;;;;;;26.70;74.40;;;;;;4952543;28;19926;-73
2022/04/20 07:19:44;;;;;;;;;;;26.60;74.50;;;;;;4964320;28;19933;-72
2022/04/20 07:22:29;;;;;;;;;;;26.30;74.00;;;;;;4961893;28;19949;-72
2022/04/20 07:25:25;;;;;;;;;;;26.00;73.20;;;;;;4950348;28;19922;-72
2022/04/20 07:28:12;;;;;;;;;;;25.80;74.90;;;;;;4961781;28;19933;-72
2022/04/20 07:31:05;;;;;;;;;;;26.10;76.70;;;;;;4947245;28;19949;-72
2022/04/20 07:33:51;;;;;;;;;;;26.90;76.40;;;;;;4965033;28;19936;-72
2022/04/20 07:36:37;;;;;;;;;;;27.30;75.60;;;;;;4961840;28;19980;-72
2022/04/20 07:39:22;;;;;;;;;;;27.70;73.60;;;;;;4956265;28;19926;-73
2022/04/20 07:42:27;;;;;;;;;;;27.70;72.10;;;;;;4968656;28;19940;-72
2022/04/20 07:45:14;;;;;;;;;;;27.80;74.90;;;;;;4953319;28;20323;-72
2022/04/20 07:48:01;;;;;;;;;;;28.20;73.40;;;;;;4944871;28;19926;-73
2022/04/20 07:50:49;;;;;;;;;;;28.00;71.30;;;;;;4968206;28;19991;-73
2022/04/20 07:53:34;;;;;;;;;;;27.50;72.10;;;;;;4967836;28;20028;-73
2022/04/20 07:56:14;;;;;;;;;;;26.80;72.30;;;;;;4953086;28;19926;-73
2022/04/20 07:58:46;;;;;;;;;;;27.90;72.50;;;;;;4951381;28;19926;-73
2022/04/20 08:01:31;;;;;;;;;;;28.10;70.60;;;;;;4963987;28;19929;-73
2022/04/20 08:04:18;;;;;;;;;;;27.60;71.00;;;;;;4965798;28;19930;-72
2022/04/20 08:06:54;;;;;;;;;;;27.40;71.40;;;;;;4951947;28;20370;-73
2022/04/20 08:09:20;;;;;;;;;;;27.10;69.80;;;;;;4950742;28;19929;-72
2022/04/20 08:11:47;;;;;;;;;;;26.80;71.60;;;;;;4952003;28;20352;-72
2022/04/20 08:14:16;;;;;;;;;;;26.90;71.50;;;;;;4949620;28;19922;-73
2022/04/20 08:16:57;;;;;;;;;;;26.70;69.80;;;;;;4951960;28;19952;-73
2022/04/20 08:19:25;;;;;;;;;;;26.40;72.10;;;;;;4966648;28;19922;-72
2022/04/20 08:22:14;;;;;;;;;;;26.60;72.60;;;;;;4967359;28;20082;-72
2022/04/20 08:24:43;;;;;;;;;;;27.10;72.90;;;;;;4973420;28;20341;-72
2022/04/20 08:27:10;;;;;;;;;;;27.40;72.40;;;;;;4968591;28;20441;-73
2022/04/20 08:29:36;;;;;;;;;;;26.90;69.30;;;;;;4970576;28;19922;-73
2022/04/20 08:32:03;;;;;;;;;;;26.50;70.00;;;;;;4963788;28;19932;-72
2022/04/20 08:34:30;;;;;;;;;;;26.20;70.20;;;;;;4966227;28;19922;-72
2022/04/20 08:36:56;;;;;;;;;;;25.80;70.30;;;;;;4967869;28;20099;-72
2022/04/20 08:39:25;;;;;;;;;;;25.50;70.50;;;;;;4969124;28;20391;-72
2022/04/20 08:41:51;;;;;;;;;;;25.20;70.30;;;;;;4968040;28;19930;-72
2022/04/20 08:44:20;;;;;;;;;;;25.10;71.10;;;;;;4969768;28;19930;-72
2022/04/20 08:46:47;;;;;;;;;;;25.10;71.30;;;;;;4967849;28;19921;-73
2022/04/20 08:49:13;;;;;;;;;;;25.40;72.00;;;;;;4946814;28;20028;-73
2022/04/20 08:54:26;;;;;;;;;;;24.80;69.30;;;;;;4971171;28;19918;-72
2022/04/20 08:59:40;;;;;;;;;;;24.20;69.60;;;;;;4966939;28;20013;-72
2022/04/20 09:02:07;;;;;;;;;;;23.40;69.30;;;;;;4966945;28;19981;-72
2022/04/20 09:04:34;;;;;;;;;;;23.20;70.80;;;;;;4968354;28;19926;-72
2022/04/20 09:07:00;;;;;;;;;;;22.90;71.00;;;;;;4968574;28;19922;-72
2022/04/20 09:09:30;;;;;;;;;;;22.90;71.90;;;;;;4968985;28;19936;-71
2022/04/20 09:11:57;;;;;;;;;;;23.00;72.30;;;;;;4965058;28;19925;-71
2022/04/20 09:14:24;;;;;;;;;;;22.90;71.40;;;;;;4960906;28;19926;-73
2022/04/20 09:16:53;;;;;;;;;;;22.80;71.20;;;;;;4967106;28;20256;-73
2022/04/20 09:19:23;;;;;;;;;;;22.50;72.50;;;;;;4946540;28;19933;-73
2022/04/20 09:21:50;;;;;;;;;;;22.30;71.90;;;;;;4966310;28;20391;-72
2022/04/20 09:24:17;;;;;;;;;;;22.00;72.60;;;;;;4948290;29;19922;-73
2022/04/20 09:26:52;;;;;;;;;;;21.90;73.30;;;;;;4964394;28;20396;-73
2022/04/20 09:29:18;;;;;;;;;;;21.60;73.00;;;;;;4968199;28;20017;-72
2022/04/20 09:31:46;;;;;;;;;;;21.60;73.90;;;;;;4961825;28;20065;-72
2022/04/20 09:34:33;;;;;;;;;;;21.60;74.10;;;;;;4964382;28;19937;-73
2022/04/20 09:37:11;;;;;;;;;;;21.40;73.60;;;;;;4965347;28;20021;-72
2022/04/20 09:39:38;;;;;;;;;;;21.00;73.00;;;;;;4961226;28;19953;-72
2022/04/20 09:42:08;;;;;;;;;;;20.50;72.60;;;;;;4969410;28;19948;-72
2022/04/20 09:44:39;;;;;;;;;;;20.20;72.30;;;;;;4949716;28;20383;-72
2022/04/20 09:49:57;;;;;;;;;;;19.00;73.00;;;;;;4913088;28;20070;-72
2022/04/20 09:52:24;;;;;;;;;;;18.40;74.70;;;;;;4963089;28;20005;-73
2022/04/20 09:54:53;;;;;;;;;;;18.20;74.90;;;;;;4964257;28;19932;-72
2022/04/20 09:57:22;;;;;;;;;;;17.90;75.30;;;;;;4966810;28;20410;-72
2022/04/20 09:59:56;;;;;;;;;;;17.70;75.10;;;;;;4967220;28;19936;-71
2022/04/20 10:02:23;;;;;;;;;;;17.50;75.70;;;;;;4969324;28;20398;-72
2022/04/20 10:04:51;;;;;;;;;;;17.40;75.40;;;;;;4976958;28;20064;-71
2022/04/20 10:07:17;;;;;;;;;;;17.40;76.20;;;;;;4975533;28;19930;-72
2022/04/20 10:09:45;;;;;;;;;;;17.30;76.20;;;;;;4965854;28;19933;-71
2022/04/20 10:12:12;;;;;;;;;;;17.10;75.80;;;;;;4952867;28;19984;-73
2022/04/20 10:17:27;;;;;;;;;;;17.00;76.70;;;;;;4962774;28;20033;-72
2022/04/20 10:19:54;;;;;;;;;;;17.10;76.80;;;;;;4961698;28;20027;-72
2022/04/20 10:22:21;;;;;;;;;;;18.00;76.50;;;;;;4958233;28;19953;-72
2022/04/20 10:24:50;;;;;;;;;;;17.30;76.50;;;;;;4960706;28;20600;-73
2022/04/20 10:27:21;;;;;;;;;;;17.00;77.30;;;;;;4966945;28;19926;-72
2022/04/20 10:29:51;;;;;;;;;;;17.20;76.70;;;;;;4962146;28;19937;-72
2022/04/20 10:32:22;;;;;;;;;;;17.30;77.00;;;;;;4944455;28;19930;-72
2022/04/20 10:34:52;;;;;;;;;;;17.30;77.40;;;;;;4957301;28;19937;-72
2022/04/20 10:37:36;;;;;;;;;;;17.40;76.90;;;;;;4950080;28;19949;-71
2022/04/20 10:40:16;;;;;;;;;;;17.40;77.00;;;;;;4940862;28;19926;-71
2022/04/20 10:43:06;;;;;;;;;;;17.40;76.80;;;;;;4944202;28;19922;-71
2022/04/20 10:45:35;;;;;;;;;;;17.40;76.70;;;;;;4962391;28;19926;-72
2022/04/20 10:48:02;;;;;;;;;;;17.50;76.30;;;;;;4969352;28;19933;-71
2022/04/20 10:50:29;;;;;;;;;;;17.60;73.00;;;;;;4969333;28;19929;-71
2022/04/20 10:52:58;;;;;;;;;;;17.80;71.50;;;;;;4959626;28;20025;-71
2022/04/20 10:55:51;;;;;;;;;;;17.80;71.60;;;;;;4948251;28;20352;-72
2022/04/20 10:58:18;;;;;;;;;;;17.70;70.00;;;;;;4958115;28;19936;-71
2022/04/20 11:00:47;;;;;;;;;;;17.80;68.00;;;;;;4963360;28;19975;-71
2022/04/20 11:03:13;;;;;;;;;;;17.80;68.60;;;;;;4968635;28;19922;-71
2022/04/20 11:05:50;;;;;;;;;;;18.00;68.40;;;;;;4963461;28;19962;-71
2022/04/20 11:08:17;;;;;;;;;;;18.20;67.50;;;;;;4962619;28;20024;-71
2022/04/20 11:18:38;;;;;;;;;;;18.30;66.30;;;;;;4957040;28;19922;-71
2022/04/20 11:19:09;;;;;;;;;;;18.30;66.10;;;;;;4936930;28;19926;-71
2022/04/20 11:22:06;;;;;;;;;;;18.40;60.20;;;;;;4966128;28;19926;-71
2022/04/20 11:24:33;;;;;;;;;;;18.50;59.10;;;;;;4965627;28;20350;-71
2022/04/20 11:27:00;;;;;;;;;;;19.00;59.70;;;;;;4971094;28;19926;-71
2022/04/20 11:29:27;;;;;;;;;;;18.20;59.40;;;;;;4968637;28;19930;-71
2022/04/20 11:31:58;;;;;;;;;;;18.30;59.00;;;;;;4968961;28;19928;-71
2022/04/20 11:34:28;;;;;;;;;;;18.70;59.50;;;;;;4949624;28;19977;-71
2022/04/20 11:37:00;;;;;;;;;;;18.70;59.50;;;;;;4967517;28;20348;-71
2022/04/20 11:39:27;;;;;;;;;;;18.80;59.00;;;;;;4965447;28;20367;-71
2022/04/20 11:41:55;;;;;;;;;;;18.90;58.40;;;;;;4970656;28;20360;-71
2022/04/20 11:44:24;;;;;;;;;;;19.40;58.80;;;;;;4960870;28;19926;-72
2022/04/20 11:46:52;;;;;;;;;;;19.00;58.30;;;;;;4969211;28;19933;-72
2022/04/20 11:49:21;;;;;;;;;;;19.10;58.60;;;;;;4953135;28;19926;-72
2022/04/20 11:51:57;;;;;;;;;;;19.30;58.60;;;;;;4948447;28;20356;-72
2022/04/20 11:54:25;;;;;;;;;;;19.10;58.20;;;;;;4950605;28;20020;-72
2022/04/20 11:57:04;;;;;;;;;;;19.40;57.90;;;;;;4965282;28;19993;-72
2022/04/20 11:59:30;;;;;;;;;;;19.40;57.70;;;;;;4962997;28;19937;-72
2022/04/20 12:01:58;;;;;;;;;;;19.50;57.60;;;;;;4967928;28;19930;-72
2022/04/20 12:04:26;;;;;;;;;;;19.40;57.40;;;;;;4970316;28;19949;-72
2022/04/20 12:06:53;;;;;;;;;;;19.30;57.50;;;;;;4970320;28;19926;-72
2022/04/20 12:09:21;;;;;;;;;;;19.50;57.50;;;;;;4967761;28;20476;-71
2022/04/20 12:11:51;;;;;;;;;;;19.60;57.80;;;;;;4969277;28;20168;-71
2022/04/20 12:14:17;;;;;;;;;;;19.80;57.90;;;;;;4973324;28;19973;-71
2022/04/20 12:16:44;;;;;;;;;;;20.00;57.60;;;;;;4968143;28;20293;-72
2022/04/20 12:19:16;;;;;;;;;;;20.10;57.20;;;;;;4969345;28;19926;-72
2022/04/20 12:21:45;;;;;;;;;;;20.00;57.00;;;;;;4963043;28;19977;-72
2022/04/20 12:24:18;;;;;;;;;;;19.80;56.60;;;;;;4968828;28;19930;-72
2022/04/20 12:26:46;;;;;;;;;;;20.00;57.00;;;;;;4962063;28;19922;-72
2022/04/20 12:29:14;;;;;;;;;;;19.80;57.30;;;;;;4963157;28;19981;-72
2022/04/20 12:31:44;;;;;;;;;;;19.80;57.30;;;;;;4964903;28;20038;-71
2022/04/20 12:34:13;;;;;;;;;;;19.80;57.50;;;;;;4969091;28;19926;-73
2022/04/20 12:37:03;;;;;;;;;;;20.10;57.90;;;;;;4964927;28;20310;-73
2022/04/20 12:39:31;;;;;;;;;;;20.30;58.00;;;;;;4963128;28;19926;-72
2022/04/20 12:41:58;;;;;;;;;;;20.40;56.90;;;;;;4950688;28;20343;-71
2022/04/20 12:44:35;;;;;;;;;;;20.20;56.50;;;;;;4969966;28;19938;-71
2022/04/20 12:47:02;;;;;;;;;;;19.90;56.40;;;;;;4963900;28;19927;-71
2022/04/20 12:49:29;;;;;;;;;;;19.90;56.70;;;;;;4971166;28;19926;-71
2022/04/20 12:52:06;;;;;;;;;;;20.00;56.90;;;;;;4962508;28;19922;-72
2022/04/20 12:54:32;;;;;;;;;;;19.70;56.90;;;;;;4965501;28;20311;-71
2022/04/20 13:02:28;;;;;;;;;;;19.90;57.50;;;;;;4969345;28;20494;-71
2022/04/20 13:04:54;;;;;;;;;;;20.00;57.00;;;;;;4969261;28;20442;-71
2022/04/20 13:07:22;;;;;;;;;;;19.90;57.00;;;;;;4969745;28;20404;-72
2022/04/20 13:09:49;;;;;;;;;;;20.00;57.00;;;;;;4964654;28;19926;-72
2022/04/20 13:12:16;;;;;;;;;;;19.70;56.50;;;;;;4968154;28;19922;-72
2022/04/20 13:14:43;;;;;;;;;;;20.00;56.70;;;;;;4951281;28;19952;-72
2022/04/20 13:17:10;;;;;;;;;;;20.10;57.00;;;;;;4952786;28;19922;-72
2022/04/20 13:19:38;;;;;;;;;;;20.20;57.50;;;;;;4949716;28;20309;-72
2022/04/20 13:22:05;;;;;;;;;;;20.40;57.50;;;;;;4966352;28;19993;-72
2022/04/20 13:30:16;;;;;;;;;;;20.40;56.70;;;;;;4907997;29;19919;-72
2022/04/20 13:32:43;;;;;;;;;;;20.20;56.60;;;;;;4939249;28;19934;-72
2022/04/20 13:35:09;;;;;;;;;;;20.00;56.60;;;;;;4966019;28;19937;-71
2022/04/20 13:37:36;;;;;;;;;;;20.10;57.30;;;;;;4960314;28;19922;-72
2022/04/20 13:40:05;;;;;;;;;;;20.00;57.30;;;;;;4967772;28;19933;-72
2022/04/20 13:42:32;;;;;;;;;;;20.10;57.10;;;;;;4966016;28;19957;-73
2022/04/20 13:44:58;;;;;;;;;;;20.10;57.30;;;;;;4960233;28;19926;-72
2022/04/20 13:47:25;;;;;;;;;;;20.10;57.50;;;;;;4961954;28;20384;-72
2022/04/20 13:49:52;;;;;;;;;;;20.10;57.70;;;;;;4966531;28;19933;-73
2022/04/20 13:52:18;;;;;;;;;;;20.70;58.30;;;;;;4964312;28;19937;-73
2022/04/20 13:54:45;;;;;;;;;;;20.30;58.00;;;;;;4961610;28;19930;-72
2022/04/20 13:57:13;;;;;;;;;;;20.50;57.70;;;;;;4965758;28;20040;-73
2022/04/20 13:59:40;;;;;;;;;;;20.40;58.00;;;;;;4967808;28;20309;-72
2022/04/20 14:02:07;;;;;;;;;;;20.40;58.20;;;;;;4962367;28;20436;-72
2022/04/20 14:04:34;;;;;;;;;;;20.30;58.00;;;;;;4946489;28;19937;-72
2022/04/20 14:07:01;;;;;;;;;;;20.30;59.10;;;;;;4959854;28;20327;-73
2022/04/20 14:09:27;;;;;;;;;;;20.20;58.90;;;;;;4949161;28;19933;-73
2022/04/20 14:11:55;;;;;;;;;;;20.20;58.70;;;;;;4956840;28;19926;-73
2022/04/20 14:14:23;;;;;;;;;;;20.30;59.10;;;;;;4964208;28;19937;-72
2022/04/20 14:16:50;;;;;;;;;;;20.60;58.80;;;;;;4942672;28;20319;-72
2022/04/20 14:19:17;;;;;;;;;;;20.30;58.40;;;;;;4962953;28;19922;-73
2022/04/20 14:21:43;;;;;;;;;;;20.30;59.10;;;;;;4964883;28;20364;-72
2022/04/20 14:24:11;;;;;;;;;;;20.20;59.20;;;;;;4965167;28;20399;-72
2022/04/20 14:32:13;;;;;;;;;;;20.00;60.20;;;;;;4959779;28;20339;-72
2022/04/20 14:34:41;;;;;;;;;;;19.90;59.90;;;;;;4966216;28;19952;-72
2022/04/20 14:37:08;;;;;;;;;;;19.90;60.00;;;;;;4965193;28;20278;-73
2022/04/20 14:39:35;;;;;;;;;;;20.50;60.70;;;;;;4958632;28;19959;-73
2022/04/20 14:42:01;;;;;;;;;;;19.90;59.90;;;;;;4966210;28;19926;-73
2022/04/20 14:44:30;;;;;;;;;;;19.70;60.10;;;;;;4959694;28;20025;-72
2022/04/20 14:46:57;;;;;;;;;;;19.80;61.00;;;;;;4963652;28;19957;-73
2022/04/20 14:49:24;;;;;;;;;;;19.80;61.30;;;;;;4962816;28;20285;-73
2022/04/20 14:51:51;;;;;;;;;;;19.90;61.90;;;;;;4964838;28;19932;-73
2022/04/20 14:54:17;;;;;;;;;;;19.80;61.20;;;;;;4965940;28;20291;-72
2022/04/20 14:56:44;;;;;;;;;;;19.80;61.60;;;;;;4968361;28;20036;-72
2022/04/20 14:59:11;;;;;;;;;;;19.70;62.10;;;;;;4962466;28;19926;-72
2022/04/20 15:01:39;;;;;;;;;;;19.90;62.20;;;;;;4963863;28;19989;-72
2022/04/20 15:04:06;;;;;;;;;;;19.60;62.40;;;;;;4956661;28;19926;-73
2022/04/20 15:06:33;;;;;;;;;;;19.70;62.40;;;;;;4964484;28;20507;-72
2022/04/20 15:09:00;;;;;;;;;;;19.60;62.60;;;;;;4965610;28;19922;-72
2022/04/20 15:11:27;;;;;;;;;;;19.50;62.50;;;;;;4958495;28;19930;-72
2022/04/20 15:13:55;;;;;;;;;;;19.40;63.00;;;;;;4957023;28;19926;-72
2022/04/20 15:16:22;;;;;;;;;;;20.10;63.70;;;;;;4964225;28;20355;-72
2022/04/20 15:18:50;;;;;;;;;;;19.30;63.10;;;;;;4965297;28;19960;-72
2022/04/20 15:21:16;;;;;;;;;;;19.30;63.50;;;;;;4956777;28;19937;-71
2022/04/20 15:23:43;;;;;;;;;;;19.30;63.40;;;;;;4963077;28;19933;-72
2022/04/20 15:26:11;;;;;;;;;;;19.40;63.60;;;;;;4965101;28;20339;-72
2022/04/20 15:28:39;;;;;;;;;;;19.40;63.80;;;;;;4961959;28;20065;-72
2022/04/20 15:31:07;;;;;;;;;;;19.50;64.00;;;;;;4956906;28;19922;-72
2022/04/20 15:33:34;;;;;;;;;;;19.50;64.40;;;;;;4967044;28;20295;-72
2022/04/20 15:36:02;;;;;;;;;;;19.30;64.20;;;;;;4968085;28;19933;-72
2022/04/20 15:38:29;;;;;;;;;;;19.40;64.70;;;;;;4964035;28;19929;-72